Time;durP1;ratioP1;P1;durP2;ratioP2;P2;SDS_P1;SDS_P2;PMS_P1;PMS_P2;Temp;Humidity;BMP_temperature;BMP_pressure;BME280_temperature;BME280_humidity;BME280_pressure;Samples;Min_cycle;Max_cycle;Signal;HPM_P1;HPM_P2
2022/09/22 00:06:50;;;;;;;0.77;0.57;;;;;;;;;;20987770;28;20573;-75
2022/09/22 00:16:53;;;;;;;0.57;0.50;;;;;;;;;;20984194;28;20231;-75
2022/09/22 00:26:57;;;;;;;0.80;0.40;;;12.40;99.90;;;;;;20986166;28;20201;-75
2022/09/22 00:36:58;;;;;;;0.50;0.40;;;;;;;;;;20983857;28;20314;-75
2022/09/22 00:47:04;;;;;;;0.53;0.50;;;;;;;;;;20983997;28;20290;-75
2022/09/22 00:57:12;;;;;;;0.53;0.40;;;;;;;;;;20982792;28;20235;-75
2022/09/22 01:07:13;;;;;;;1.23;0.70;;;;;;;;;;20991184;28;20230;-75
2022/09/22 01:17:24;;;;;;;0.53;0.43;;;;;;;;;;20961993;28;20221;-75
2022/09/22 01:27:34;;;;;;;2.67;0.60;;;12.00;99.90;;;;;;20977755;28;20440;-75
2022/09/22 01:37:54;;;;;;;1.20;0.70;;;11.90;99.90;;;;;;20990252;28;20261;-75
2022/09/22 01:48:05;;;;;;;0.70;0.50;;;11.70;99.90;;;;;;20982182;28;20270;-75
2022/09/22 01:58:13;;;;;;;1.03;0.50;;;;;;;;;;20981325;28;20212;-75
2022/09/22 02:08:21;;;;;;;3.60;0.80;;;;;;;;;;20982358;28;20209;-75
2022/09/22 02:18:26;;;;;;;0.60;0.50;;;;;;;;;;20985360;28;20693;-75
2022/09/22 02:28:29;;;;;;;0.90;0.50;;;;;;;;;;20995578;28;20676;-76
2022/09/22 02:38:51;;;;;;;0.53;0.50;;;11.40;99.90;;;;;;20994499;28;20749;-75
2022/09/22 02:48:58;;;;;;;0.87;0.53;;;11.20;99.90;;;;;;20975707;28;20221;-75
2022/09/22 02:58:59;;;;;;;0.60;0.50;;;;;;;;;;20993095;28;20266;-76
2022/09/22 03:09:02;;;;;;;0.90;0.63;;;;;;;;;;20991350;28;20286;-75
2022/09/22 03:19:04;;;;;;;1.13;0.60;;;;;;;;;;21015435;22;20243;-74
2022/09/22 03:29:05;;;;;;;0.43;0.40;;;;;;;;;;21037485;28;20213;-74
2022/09/22 03:39:07;;;;;;;0.80;0.60;;;;;;;;;;21038298;28;20217;-73
2022/09/22 03:49:09;;;;;;;0.50;0.47;;;;;;;;;;21060889;28;20247;-74
2022/09/22 03:59:11;;;;;;;0.70;0.40;;;;;;;;;;21047843;28;20251;-73
2022/09/22 04:09:16;;;;;;;0.50;0.40;;;;;;;;;;21063382;28;20216;-73
2022/09/22 04:19:18;;;;;;;1.00;0.60;;;;;;;;;;21043509;28;20205;-72
2022/09/22 04:29:20;;;;;;;1.17;0.60;;;;;;;;;;21025098;28;20553;-72
2022/09/22 04:39:21;;;;;;;0.80;0.50;;;;;;;;;;21070014;28;20582;-73
2022/09/22 04:49:23;;;;;;;0.80;0.60;;;;;;;;;;21048182;28;20208;-73
2022/09/22 04:59:25;;;;;;;3.40;0.70;;;;;;;;;;20990326;28;20229;-73
2022/09/22 05:09:27;;;;;;;1.60;0.90;;;;;;;;;;20984832;28;20569;-73
2022/09/22 05:19:28;;;;;;;2.07;0.60;;;;;;;;;;20984639;28;20370;-73
2022/09/22 05:29:30;;;;;;;0.67;0.50;;;;;;;;;;21058420;28;20596;-73
2022/09/22 05:39:32;;;;;;;1.57;1.00;;;;;;;;;;20988439;28;20561;-73
2022/09/22 05:49:34;;;;;;;1.47;0.77;;;;;;;;;;21053470;28;20263;-73
2022/09/22 05:59:35;;;;;;;0.90;0.70;;;;;;;;;;21080567;28;20703;-73
2022/09/22 06:09:37;;;;;;;1.63;1.10;;;;;;;;;;21065825;28;20261;-72
2022/09/22 06:19:39;;;;;;;1.40;0.83;;;;;;;;;;21058963;28;21604;-74
2022/09/22 06:29:41;;;;;;;2.83;0.90;;;;;;;;;;21031043;28;20205;-74
2022/09/22 06:39:42;;;;;;;2.90;0.90;;;;;;;;;;21060940;28;20220;-73
2022/09/22 06:49:45;;;;;;;3.50;1.10;;;;;;;;;;21058528;28;20691;-73
2022/09/22 06:59:47;;;;;;;1.60;0.70;;;;;;;;;;21058328;28;20293;-74
2022/09/22 07:09:48;;;;;;;2.80;0.90;;;;;;;;;;21066780;28;20221;-74
2022/09/22 07:19:50;;;;;;;1.10;0.73;;;;;;;;;;21065550;28;20655;-74
2022/09/22 07:29:53;;;;;;;3.33;0.90;;;;;;;;;;21065029;28;20208;-75
2022/09/22 07:39:54;;;;;;;4.13;1.30;;;;;;;;;;21057081;28;20305;-74
2022/09/22 07:49:56;;;;;;;1.80;1.30;;;;;;;;;;21036209;28;20644;-73
2022/09/22 07:59:58;;;;;;;1.60;1.00;;;;;;;;;;21017048;28;20239;-72
2022/09/22 08:10:00;;;;;;;1.73;1.13;;;;;;;;;;21051237;28;20696;-74
2022/09/22 08:20:03;;;;;;;3.30;1.50;;;;;;;;;;21027071;28;20290;-73
2022/09/22 08:30:06;;;;;;;1.30;0.90;;;;;;;;;;20993630;28;20258;-73
2022/09/22 08:40:22;;;;;;;1.47;1.00;;;13.40;99.90;;;;;;21059562;28;20220;-73
2022/09/22 09:01:19;;;;;;;2.27;1.37;;;13.60;99.90;;;;;;21064489;28;20242;-72
2022/09/22 09:11:40;;;;;;;4.03;1.30;;;;;;;;;;21020334;28;20707;-73
2022/09/22 09:21:51;;;;;;;2.93;1.40;;;14.10;99.90;;;;;;20980275;28;20213;-74
2022/09/22 09:31:54;;;;;;;5.13;1.60;;;;;;;;;;21083751;22;20582;-73
2022/09/22 09:41:58;;;;;;;2.47;1.43;;;;;;;;;;21045478;28;20241;-73
2022/09/22 09:52:01;;;;;;;1.80;1.00;;;;;;;;;;21047702;28;20647;-73
2022/09/22 10:02:03;;;;;;;2.07;1.20;;;;;;;;;;21026840;28;20217;-73
2022/09/22 10:12:06;;;;;;;4.17;1.03;;;;;;;;;;20998094;28;20224;-73
2022/09/22 10:22:23;;;;;;;1.20;0.80;;;;;;;;;;21019580;28;20213;-73
2022/09/22 10:32:25;;;;;;;0.83;0.63;;;;;;;;;;21064857;28;21088;-74
2022/09/22 10:42:36;;;;;;;2.77;0.70;;;;;;;;;;20989566;28;20221;-74
2022/09/22 10:52:44;;;;;;;1.30;0.70;;;;;;;;;;21012279;28;20600;-71
2022/09/22 11:03:05;;;;;;;1.10;0.63;;;;;;;;;;21014607;28;20273;-70
2022/09/22 11:13:26;;;;;;;0.70;0.50;;;;;;;;;;21001647;28;20217;-69
2022/09/22 11:23:55;;;;;;;1.07;0.70;;;;;;;;;;20959764;28;20736;-72
2022/09/22 11:34:17;;;;;;;0.60;0.50;;;;;;;;;;20944538;28;20785;-72
2022/09/22 11:44:35;;;;;;;0.97;0.50;;;;;;;;;;20974225;28;20221;-73
2022/09/22 11:54:58;;;;;;;0.80;0.57;;;17.20;99.90;;;;;;21007426;28;20284;-72
2022/09/22 12:05:07;;;;;;;0.57;0.40;;;;;;;;;;21019312;28;20254;-73
2022/09/22 12:15:35;;;;;;;1.53;0.70;;;;;;;;;;21009593;28;20691;-72
2022/09/22 12:25:53;;;;;;;0.53;0.40;;;;;;;;;;21005157;28;20305;-73
2022/09/22 12:35:56;;;;;;;1.00;0.40;;;;;;;;;;21021539;28;20626;-73
2022/09/22 12:45:59;;;;;;;0.57;0.40;;;;;;;;;;21019575;28;20242;-73
2022/09/22 12:56:39;;;;;;;0.43;0.33;;;17.90;99.90;;;;;;21030101;28;20265;-73
2022/09/22 13:06:41;;;;;;;1.13;0.60;;;;;;;;;;21002276;28;20774;-74
2022/09/22 13:16:43;;;;;;;0.77;0.30;;;;;;;;;;20992398;28;20626;-73
2022/09/22 13:26:45;;;;;;;0.40;0.30;;;;;;;;;;21014819;28;20300;-72
2022/09/22 13:36:49;;;;;;;1.17;0.40;;;18.40;99.90;;;;;;21004369;28;20220;-73
2022/09/22 13:46:52;;;;;;;0.53;0.33;;;;;;;;;;21018904;28;20213;-73
2022/09/22 13:56:54;;;;;;;1.07;0.40;;;18.60;99.90;;;;;;21016945;28;20221;-73
2022/09/22 14:06:58;;;;;;;0.40;0.40;;;;;;;;;;20973747;28;20268;-73
2022/09/22 14:17:00;;;;;;;1.97;0.53;;;;;;;;;;20980806;28;20221;-73
2022/09/22 14:27:04;;;;;;;0.47;0.40;;;18.80;99.90;;;;;;20980369;28;20241;-73
2022/09/22 14:37:19;;;;;;;1.67;0.40;;;18.90;99.90;;;;;;20963205;28;20230;-73
2022/09/22 14:47:28;;;;;;;0.50;0.37;;;;;;;;;;20966405;28;20220;-71
2022/09/22 14:57:31;;;;;;;1.33;0.33;;;;;;;;;;21019458;28;20229;-71
2022/09/22 15:07:34;;;;;;;0.80;0.30;;;;;;;;;;21028593;28;20242;-71
2022/09/22 15:28:10;;;;;;;0.40;0.30;;;;;;;;;;21043990;28;20598;-71
2022/09/22 15:38:19;;;;;;;0.47;0.37;;;;;;;;;;21016217;28;20273;-70
2022/09/22 15:48:28;;;;;;;0.67;0.40;;;17.70;99.90;;;;;;21056317;28;20270;-71
2022/09/22 15:58:38;;;;;;;1.97;1.47;;;17.40;99.90;;;;;;21038943;28;20224;-71
2022/09/22 16:08:46;;;;;;;0.40;0.30;;;17.40;99.90;;;;;;21037442;28;20650;-71
2022/09/22 16:18:49;;;;;;;1.33;0.40;;;;;;;;;;21057972;28;20258;-71
2022/09/22 16:28:51;;;;;;;0.60;0.30;;;17.40;99.90;;;;;;21051269;28;20695;-71
2022/09/22 16:38:54;;;;;;;0.63;0.40;;;17.20;99.90;;;;;;20997724;28;20254;-72
2022/09/22 16:49:09;;;;;;;0.50;0.30;;;;;;;;;;21017603;28;20603;-72
2022/09/22 16:59:14;;;;;;;0.70;0.43;;;;;;;;;;20964655;28;20247;-71
2022/09/22 17:09:16;;;;;;;1.67;0.43;;;17.00;99.90;;;;;;21012230;28;20204;-71
2022/09/22 17:19:21;;;;;;;2.53;0.60;;;16.80;99.90;;;;;;21073842;28;20293;-71
2022/09/22 17:29:27;;;;;;;0.60;0.37;;;;;;;;;;21026814;28;20224;-71
2022/09/22 17:39:30;;;;;;;0.67;0.53;;;;;;;;;;21025132;28;20220;-71
2022/09/22 17:59:55;;;;;;;4.83;1.57;;;16.40;99.90;;;;;;20980702;28;20233;-71
2022/09/22 18:09:57;;;;;;;2.63;1.50;;;;;;;;;;20977166;28;20274;-71
2022/09/22 18:19:59;;;;;;;3.37;1.93;;;;;;;;;;20959666;28;20614;-71
2022/09/22 18:30:03;;;;;;;3.87;1.47;;;;;;;;;;21014297;28;20974;-71
2022/09/22 18:40:06;;;;;;;2.20;1.40;;;;;;;;;;21031397;28;20216;-71
2022/09/22 18:50:08;;;;;;;3.87;1.27;;;;;;;;;;21057776;28;20763;-71
2022/09/22 19:00:12;;;;;;;4.93;1.97;;;;;;;;;;21055465;28;20240;-71
2022/09/22 19:10:19;;;;;;;3.13;0.80;;;;;;;;;;21040058;28;20204;-71
2022/09/22 19:20:22;;;;;;;3.27;0.97;;;15.50;99.90;;;;;;21055391;28;20280;-72
2022/09/22 19:30:24;;;;;;;6.27;3.70;;;;;;;;;;20987027;28;20217;-72
2022/09/22 19:40:26;;;;;;;2.80;1.23;;;;;;;;;;20989301;28;20640;-71
2022/09/22 19:50:28;;;;;;;2.00;0.90;;;;;;;;;;21036236;28;20273;-71
2022/09/22 20:00:31;;;;;;;1.97;0.90;;;;;;;;;;21052681;28;20691;-71
2022/09/22 20:10:33;;;;;;;2.10;1.20;;;;;;;;;;21037501;28;20554;-71
2022/09/22 20:20:36;;;;;;;2.50;1.03;;;;;;;;;;21027184;28;20224;-71
2022/09/22 20:30:40;;;;;;;1.40;1.00;;;;;;;;;;21042636;28;20229;-71
2022/09/22 20:40:42;;;;;;;2.40;0.90;;;;;;;;;;21027577;28;20273;-71
2022/09/22 20:50:57;;;;;;;1.63;0.83;;;14.40;99.90;;;;;;21036090;28;20577;-71
2022/09/22 21:01:00;;;;;;;4.13;1.03;;;;;;;;;;21068606;28;20285;-71
2022/09/22 21:11:02;;;;;;;1.93;1.20;;;;;;;;;;21035830;28;20196;-71
2022/09/22 21:21:05;;;;;;;0.77;0.67;;;;;;;;;;21038693;28;20629;-71
2022/09/22 21:31:08;;;;;;;1.53;0.93;;;;;;;;;;21078290;22;20277;-74
2022/09/22 21:41:22;;;;;;;1.83;0.90;;;14.00;99.90;;;;;;21022659;28;20264;-74
2022/09/22 21:51:24;;;;;;;2.70;1.10;;;14.00;99.90;;;;;;20997727;28;20224;-75
2022/09/22 22:01:27;;;;;;;2.50;1.40;;;;;;;;;;21048264;28;20287;-74
2022/09/22 22:11:42;;;;;;;2.40;1.47;;;13.80;99.90;;;;;;21064240;28;20278;-74
2022/09/22 22:21:44;;;;;;;6.80;4.00;;;;;;;;;;21071613;28;20224;-74
2022/09/22 22:31:47;;;;;;;9.30;5.40;;;13.40;99.90;;;;;;21078671;28;20269;-74
2022/09/22 22:41:49;;;;;;;1.73;0.80;;;;;;;;;;21077511;28;20776;-74
2022/09/22 22:51:51;;;;;;;1.60;1.00;;;;;;;;;;21061307;28;20281;-74
2022/09/22 23:01:53;;;;;;;1.17;0.90;;;;;;;;;;21019939;28;20273;-74
2022/09/22 23:11:54;;;;;;;1.97;0.60;;;;;;;;;;21068325;28;20212;-74
2022/09/22 23:21:57;;;;;;;1.47;0.80;;;;;;;;;;21067251;28;20228;-74
2022/09/22 23:32:00;;;;;;;2.77;0.70;;;;;;;;;;21073345;28;20598;-74
2022/09/22 23:42:02;;;;;;;1.30;0.80;;;;;;;;;;21071611;28;20232;-74
2022/09/22 23:52:04;;;;;;;1.23;0.80;;;;;;;;;;21072752;28;20201;-74
